Sunday, December 16, 2018, 5:37 PM GMT
Back to Local

CWRN, Hart Island Meteorological Aeronautical Presentation System

Location: , , Canada Lat: 45.35
Local Time: 5:37 PM GMT (17:37 GMT) Lon: -60.983
Time Zone: GMT Elev: 13 ft

Show me the last for .
Show Coded

Time T Td Feel RH Dir Speed Gust Alt SLP Vis Weather Sky Remarks
2018-12-16 17:00 38 29 31 70 320° 12 - - 30.14 0 Peak wind: 23 mph (20 kts) from 340° at 02 min
2018-12-16 16:00 35 26 24 70 330° 18 - - 30.14 0 Peak wind: 24 mph (21 kts) from 320° at 15 min
2018-12-16 15:00 36 24 25 62 340° 18 - - 30.15 0 Peak wind: 21 mph (19 kts) from 350° at 48 min
2018-12-16 14:00 36 29 26 77 350° 16 - - 30.19 0 Peak wind: 23 mph (20 kts) from 330° at 12 min
2018-12-16 13:00 35 27 24 74 330° 17 - - 30.17 0 Peak wind: 26 mph (23 kts) from 340° at 09 min
2018-12-16 12:00 34 28 23 77 330° 22 - - 30.15 0 Peak wind: 28 mph (25 kts) from 330° at 20 min
2018-12-16 11:00 35 29 22 79 320° 22 29 - 30.15 0 Peak wind: 32 mph (28 kts) from 320° at 24 min
2018-12-16 10:00 35 29 23 79 320° 23 - - 30.14 0 Peak wind: 27 mph (24 kts) from 320° at 59 min
2018-12-16 09:00 35 29 22 80 320° 22 28 - 30.13 0 Peak wind: 27 mph (24 kts) from 310° at 50 min
2018-12-16 08:00 35 30 23 81 310° 22 - - 30.11 0 Peak wind: 29 mph (26 kts) from 310° at 00 min
2018-12-16 07:00 35 29 23 78 310° 26 - - 30.10 0 Peak wind: 35 mph (31 kts) from 300° at 00 min
2018-12-16 06:00 36 29 22 76 310° 30 36 - 30.08 0 Peak wind: 37 mph (33 kts) from 310° at 47 min
2018-12-16 05:00 36 29 24 74 300° 29 - - 30.04 0 Peak wind: 37 mph (33 kts) from 300° at 44 min
2018-12-16 04:00 37 28 24 71 300° 26 - - 30.03 0 Peak wind: 31 mph (27 kts) from 280° at 26 min
2018-12-16 03:00 37 28 25 70 300° 20 25 - 30.05 0 Peak wind: 29 mph (26 kts) from 290° at 12 min
2018-12-16 02:00 37 28 24 70 300° 24 33 - 30.03 0 Peak wind: 33 mph (29 kts) from 290° at 03 min
2018-12-16 01:00 37 29 24 73 290° 23 31 - 30.01 0 Peak wind: 32 mph (28 kts) from 290° at 16 min
2018-12-16 00:00 37 30 24 75 300° 26 33 - 30.01 0 Peak wind: 34 mph (30 kts) from 300° at 45 min
2018-12-15 23:00 38 31 27 76 300° 20 26 - 30.00 0 Peak wind: 26 mph (23 kts) from 300° at 59 min
2018-12-15 22:00 37 31 28 78 280° 16 - - 29.98 0 Peak wind: 27 mph (24 kts) from 270° at 06 min
2018-12-15 21:00 38 32 28 76 280° 18 24 - 29.96 0 Peak wind: 24 mph (21 kts) from 280° at 07 min
2018-12-15 20:00 39 33 30 78 290° 16 - - 29.93 0 Peak wind: 27 mph (24 kts) from 310° at 02 min
2018-12-15 19:00 40 35 31 81 300° 17 - - 29.92 0 Peak wind: 27 mph (24 kts) from 290° at 40 min
2018-12-15 18:00 38 35 29 88 300° 17 - - 29.89 0 Peak wind: 26 mph (23 kts) from 290° at 27 min

Support USWX by starting your Amazon purchase here.